createdAt,value
2019-05-30T00:00:06.582Z,999.04
2019-05-30T00:00:53.960Z,999.04
2019-05-30T00:01:54.221Z,999
2019-05-30T00:02:54.037Z,999.01
2019-05-30T00:03:54.014Z,998.99
2019-05-30T00:04:54.073Z,999.04
2019-05-30T00:05:54.276Z,999.03
2019-05-30T00:06:54.272Z,999.04
2019-05-30T00:07:54.119Z,999.07
2019-05-30T00:08:54.264Z,999.03
2019-05-30T00:09:54.255Z,999.01
2019-05-30T00:10:54.329Z,999.02
2019-05-30T00:11:54.652Z,999.03
2019-05-30T00:12:54.654Z,999.03
2019-05-30T00:13:54.541Z,999.05
2019-05-30T00:14:54.467Z,999.03
2019-05-30T00:15:54.569Z,999.01
2019-05-30T00:16:54.615Z,999
2019-05-30T00:17:54.575Z,999.03
2019-05-30T00:18:54.623Z,999.02
2019-05-30T00:19:54.987Z,999.02
2019-05-30T00:20:54.680Z,999
2019-05-30T00:21:54.679Z,999.01
2019-05-30T00:22:54.611Z,998.99
2019-05-30T00:23:53.759Z,999
2019-05-30T00:24:53.701Z,999
2019-05-30T00:25:55.127Z,998.99
2019-05-30T00:26:53.695Z,998.99
2019-05-30T00:27:53.696Z,998.97
2019-05-30T00:28:53.685Z,998.94
2019-05-30T00:29:53.680Z,998.96
2019-05-30T00:30:53.677Z,998.98
2019-05-30T00:31:53.663Z,998.97
2019-05-30T00:32:53.666Z,999.02
2019-05-30T00:33:53.656Z,998.99
2019-05-30T00:34:53.645Z,998.95
2019-05-30T00:35:53.642Z,999
2019-05-30T00:36:53.660Z,999.01
2019-05-30T00:37:53.630Z,999.01
2019-05-30T00:38:53.619Z,999.01
2019-05-30T00:39:53.620Z,999.06
2019-05-30T00:40:53.621Z,999.07
2019-05-30T00:41:53.605Z,999.04
2019-05-30T00:42:53.598Z,999.04
2019-05-30T00:43:53.618Z,999.06
2019-05-30T00:44:53.585Z,999.04
2019-05-30T00:45:53.580Z,999.03
2019-05-30T00:46:53.574Z,999.06
2019-05-30T00:47:53.568Z,999.1
2019-05-30T00:48:53.569Z,999.08
2019-05-30T00:49:53.558Z,999.07
2019-05-30T00:50:53.555Z,999.11
2019-05-30T00:51:53.550Z,999.07
2019-05-30T00:52:53.544Z,999.11
2019-05-30T00:53:53.539Z,999.11
2019-05-30T00:54:53.532Z,999.09
2019-05-30T00:55:53.528Z,999.08
2019-05-30T00:56:53.520Z,999.09
2019-05-30T00:57:53.512Z,999.14
2019-05-30T00:58:53.506Z,999.17
2019-05-30T00:59:53.501Z,999.14
2019-05-30T01:00:53.494Z,999.17
2019-05-30T01:01:53.491Z,999.17
2019-05-30T01:02:53.518Z,999.16
2019-05-30T01:03:53.476Z,999.15
2019-05-30T01:04:53.474Z,999.15
2019-05-30T01:05:53.466Z,999.17
2019-05-30T01:06:53.471Z,999.16
2019-05-30T01:07:53.455Z,999.2
2019-05-30T01:08:53.451Z,999.17
2019-05-30T01:09:53.439Z,999.12
2019-05-30T01:10:53.435Z,999.11
2019-05-30T01:11:53.431Z,999.08
2019-05-30T01:12:53.426Z,999.07
2019-05-30T01:13:53.415Z,999.08
2019-05-30T01:14:53.410Z,999.06
2019-05-30T01:15:53.414Z,999.02
2019-05-30T01:16:53.400Z,999.02
2019-05-30T01:17:53.393Z,999.06
2019-05-30T01:18:53.406Z,999.05
2019-05-30T01:19:53.380Z,998.98
2019-05-30T01:20:53.373Z,999.03
2019-05-30T01:21:53.364Z,999.02
2019-05-30T01:22:53.360Z,999.04
2019-05-30T01:23:53.353Z,999.05
2019-05-30T01:24:53.344Z,999.03
2019-05-30T01:25:53.339Z,999.06
2019-05-30T01:26:53.337Z,999.01
2019-05-30T01:27:53.333Z,999.02
2019-05-30T01:28:53.321Z,999.03
2019-05-30T01:29:53.314Z,999.04
2019-05-30T01:31:00.002Z,999.03
2019-05-30T01:31:53.322Z,999.02
2019-05-30T01:32:53.295Z,999.03
2019-05-30T01:33:53.317Z,999.04
2019-05-30T01:34:53.293Z,999.04
2019-05-30T01:35:53.286Z,999.05
2019-05-30T01:36:53.277Z,999.07
2019-05-30T01:37:53.438Z,999.06
2019-05-30T01:38:53.260Z,999.03
2019-05-30T01:39:53.252Z,999.02
2019-05-30T01:40:53.267Z,999.07
2019-05-30T01:41:53.244Z,999.07
2019-05-30T01:42:53.242Z,999.02
2019-05-30T01:43:53.228Z,998.96
2019-05-30T01:44:53.222Z,998.95
2019-05-30T01:45:53.217Z,998.98
2019-05-30T01:46:53.219Z,998.97
2019-05-30T01:47:53.206Z,998.99
2019-05-30T01:48:53.201Z,998.98
2019-05-30T01:49:53.199Z,998.95
2019-05-30T01:50:53.185Z,999
2019-05-30T01:51:53.183Z,999.01
2019-05-30T01:52:53.189Z,998.97
2019-05-30T01:53:53.165Z,998.96
2019-05-30T01:54:53.162Z,998.95
2019-05-30T01:55:53.153Z,998.96
2019-05-30T01:56:53.154Z,998.95
2019-05-30T01:57:53.163Z,998.97
2019-05-30T01:58:53.137Z,998.94
2019-05-30T01:59:53.130Z,998.98
2019-05-30T02:00:53.123Z,998.91
2019-05-30T02:01:53.117Z,998.97
2019-05-30T02:02:53.121Z,998.96
2019-05-30T02:03:53.112Z,998.91
2019-05-30T02:04:53.097Z,998.94
2019-05-30T02:05:53.123Z,998.96
2019-05-30T02:06:53.085Z,998.93
2019-05-30T02:07:53.084Z,998.93
2019-05-30T02:08:53.074Z,998.93
2019-05-30T02:09:53.066Z,998.99
2019-05-30T02:10:53.070Z,998.92
2019-05-30T02:11:53.065Z,998.93
2019-05-30T02:12:53.059Z,998.95
2019-05-30T02:13:53.043Z,998.97
2019-05-30T02:14:53.034Z,999.01
2019-05-30T02:15:53.026Z,998.98
2019-05-30T02:16:53.020Z,999.01
2019-05-30T02:17:53.024Z,998.97
2019-05-30T02:18:53.023Z,998.94
2019-05-30T02:19:53.006Z,998.96
2019-05-30T02:20:53.008Z,998.94
2019-05-30T02:21:52.990Z,998.92
2019-05-30T02:22:52.999Z,998.98
2019-05-30T02:23:52.975Z,999
2019-05-30T02:24:53.019Z,998.98
2019-05-30T02:25:52.967Z,998.98
2019-05-30T02:26:52.962Z,998.97
2019-05-30T02:27:52.965Z,998.98
2019-05-30T02:28:52.950Z,998.96
2019-05-30T02:29:52.938Z,999.03
2019-05-30T02:30:52.944Z,999.02
2019-05-30T02:31:52.928Z,999
2019-05-30T02:32:52.933Z,999
2019-05-30T02:33:52.919Z,999.06
2019-05-30T02:34:52.924Z,999.06
2019-05-30T02:35:52.912Z,999.08
2019-05-30T02:36:52.899Z,999.08
2019-05-30T02:37:52.902Z,999.05
2019-05-30T02:38:52.886Z,999.04
2019-05-30T02:39:52.928Z,999.08
2019-05-30T02:40:52.872Z,999.07
2019-05-30T02:41:52.868Z,999.08
2019-05-30T02:42:52.874Z,999.09
2019-05-30T02:43:52.854Z,999.15
2019-05-30T02:44:52.853Z,999.16
2019-05-30T02:45:52.845Z,999.14
2019-05-30T02:46:52.839Z,999.12
2019-05-30T02:47:52.858Z,999.17
2019-05-30T02:48:58.580Z,999.16
2019-05-30T02:49:52.818Z,999.15
2019-05-30T02:50:52.815Z,999.14
2019-05-30T02:51:52.808Z,999.14
2019-05-30T02:52:52.811Z,999.15
2019-05-30T02:53:52.793Z,999.14
2019-05-30T02:54:53.589Z,999.14
2019-05-30T02:55:52.781Z,999.17
2019-05-30T02:56:52.774Z,999.21
2019-05-30T02:57:52.816Z,999.19
2019-05-30T02:58:52.763Z,999.21
2019-05-30T02:59:52.761Z,999.23
2019-05-30T03:00:52.751Z,999.26
2019-05-30T03:02:00.572Z,999.25
2019-05-30T03:02:52.760Z,999.25
2019-05-30T03:03:52.734Z,999.27
2019-05-30T03:04:52.739Z,999.26
2019-05-30T03:05:52.720Z,999.33
2019-05-30T03:06:52.718Z,999.3
2019-05-30T03:07:52.723Z,999.26
2019-05-30T03:08:52.720Z,999.31
2019-05-30T03:09:52.725Z,999.29
2019-05-30T03:10:52.690Z,999.32
2019-05-30T03:11:52.697Z,999.27
2019-05-30T03:12:52.681Z,999.26
2019-05-30T03:13:52.673Z,999.32
2019-05-30T03:14:52.663Z,999.27
2019-05-30T03:15:52.658Z,999.32
2019-05-30T03:16:52.654Z,999.29
2019-05-30T03:17:52.711Z,999.32
2019-05-30T03:18:52.639Z,999.29
2019-05-30T03:19:52.641Z,999.33
2019-05-30T03:20:52.621Z,999.29
2019-05-30T03:21:52.625Z,999.3
2019-05-30T03:22:52.623Z,999.33
2019-05-30T03:23:52.603Z,999.29
2019-05-30T03:24:52.596Z,999.31
2019-05-30T03:25:52.592Z,999.33
2019-05-30T03:26:52.584Z,999.37
2019-05-30T03:27:52.580Z,999.34
2019-05-30T03:28:53.602Z,999.38
2019-05-30T03:29:52.561Z,999.35
2019-05-30T03:30:52.556Z,999.38
2019-05-30T03:31:52.549Z,999.36
2019-05-30T03:33:30.992Z,999.36
2019-05-30T03:34:21.843Z,999.42
2019-05-30T03:35:23.619Z,999.42
2019-05-30T03:36:23.371Z,999.41
2019-05-30T03:37:22.410Z,999.37
2019-05-30T03:38:12.946Z,999.4
2019-05-30T03:39:13.032Z,999.39
2019-05-30T03:40:11.037Z,999.42
2019-05-30T03:41:12.089Z,999.42
2019-05-30T03:42:11.831Z,999.43
2019-05-30T03:43:11.701Z,999.45
2019-05-30T03:44:13.445Z,999.44
2019-05-30T03:45:13.847Z,999.42
2019-05-30T03:46:12.710Z,999.39
2019-05-30T03:47:12.988Z,999.45
2019-05-30T03:48:11.956Z,999.49
2019-05-30T03:49:12.713Z,999.5
2019-05-30T03:50:12.313Z,999.5
2019-05-30T03:51:12.848Z,999.52
2019-05-30T03:52:14.404Z,999.56
2019-05-30T03:53:11.883Z,999.57
2019-05-30T03:54:12.144Z,999.61
2019-05-30T03:55:12.407Z,999.61
2019-05-30T03:56:11.977Z,999.61
2019-05-30T03:57:11.651Z,999.63
2019-05-30T03:58:12.693Z,999.67
2019-05-30T03:59:12.605Z,999.68
2019-05-30T04:00:11.969Z,999.65
2019-05-30T04:01:12.515Z,999.7
2019-05-30T04:02:11.809Z,999.69
2019-05-30T04:03:11.605Z,999.7
2019-05-30T04:04:12.056Z,999.7
2019-05-30T04:05:11.807Z,999.71
2019-05-30T04:06:12.283Z,999.72
2019-05-30T04:07:11.862Z,999.76
2019-05-30T04:08:12.307Z,999.74
2019-05-30T04:09:12.247Z,999.74
2019-05-30T04:10:13.419Z,999.73
2019-05-30T04:11:12.353Z,999.76
2019-05-30T04:12:12.617Z,999.74
2019-05-30T04:13:12.086Z,999.74
2019-05-30T04:14:11.447Z,999.83
2019-05-30T04:15:12.480Z,999.78
2019-05-30T04:16:11.121Z,999.88
2019-05-30T04:17:13.438Z,999.87
2019-05-30T04:18:12.450Z,999.89
2019-05-30T04:19:12.464Z,999.92
2019-05-30T04:20:11.472Z,999.93
2019-05-30T04:21:12.786Z,999.97
2019-05-30T04:22:11.529Z,999.92
2019-05-30T04:23:11.275Z,999.88
2019-05-30T04:24:12.309Z,999.92
2019-05-30T04:25:12.265Z,999.92
2019-05-30T04:26:11.491Z,999.88
2019-05-30T04:27:11.995Z,999.9
2019-05-30T04:28:12.011Z,999.88
2019-05-30T04:29:12.200Z,999.92
2019-05-30T04:30:11.876Z,999.85
2019-05-30T04:31:12.317Z,999.95
2019-05-30T04:32:12.379Z,999.9
2019-05-30T04:33:19.009Z,999.93
2019-05-30T04:34:12.442Z,999.9
2019-05-30T04:35:12.272Z,999.91
2019-05-30T04:36:12.372Z,999.89
2019-05-30T04:37:10.797Z,999.88
2019-05-30T04:38:10.688Z,999.89
2019-05-30T04:39:11.220Z,999.93
2019-05-30T04:40:11.245Z,999.93
2019-05-30T04:41:11.190Z,999.88
2019-05-30T04:42:11.312Z,999.92
2019-05-30T04:43:10.956Z,999.88
2019-05-30T04:44:11.913Z,999.92
2019-05-30T04:45:11.739Z,999.92
2019-05-30T04:46:12.131Z,999.93
2019-05-30T04:47:12.081Z,999.92
2019-05-30T04:48:11.659Z,999.92
2019-05-30T04:49:12.170Z,999.95
2019-05-30T04:50:12.170Z,999.97
2019-05-30T04:51:12.408Z,999.96
2019-05-30T04:52:15.347Z,999.98
2019-05-30T04:53:12.165Z,999.98
2019-05-30T04:54:12.406Z,999.97
2019-05-30T04:55:12.847Z,999.96
2019-05-30T04:56:12.487Z,999.93
2019-05-30T04:57:10.809Z,999.92
2019-05-30T04:58:11.434Z,999.91
2019-05-30T04:59:11.026Z,999.88
2019-05-30T05:00:10.795Z,999.9
2019-05-30T05:01:11.028Z,999.85
2019-05-30T05:02:11.384Z,999.84
2019-05-30T05:03:11.290Z,999.8
2019-05-30T05:04:11.398Z,999.83
2019-05-30T05:05:11.347Z,999.86
2019-05-30T05:06:11.538Z,999.86
2019-05-30T05:07:11.500Z,999.83
2019-05-30T05:08:11.706Z,999.83
2019-05-30T05:09:11.945Z,999.9
2019-05-30T05:10:11.974Z,999.88
2019-05-30T05:11:14.140Z,999.89
2019-05-30T05:12:11.888Z,999.91
2019-05-30T05:13:12.122Z,999.92
2019-05-30T05:14:12.226Z,999.97
2019-05-30T05:15:12.288Z,1000
2019-05-30T05:16:22.790Z,999.94
2019-05-30T05:17:10.705Z,1000
2019-05-30T05:18:10.711Z,999.96
2019-05-30T05:19:10.699Z,1000.02
2019-05-30T05:20:10.698Z,1000
2019-05-30T05:21:10.698Z,999.98
2019-05-30T05:22:10.702Z,999.97
2019-05-30T05:23:10.698Z,999.95
2019-05-30T05:24:10.700Z,999.97
2019-05-30T05:25:10.699Z,999.94
2019-05-30T05:26:10.698Z,999.94
2019-05-30T05:27:10.701Z,999.98
2019-05-30T05:28:10.700Z,1000
2019-05-30T05:29:10.723Z,1000.03
2019-05-30T05:30:10.708Z,1000.03
2019-05-30T05:31:10.712Z,999.97
2019-05-30T05:32:10.710Z,1000.02
2019-05-30T05:33:10.719Z,1000.01
2019-05-30T05:34:10.715Z,999.99
2019-05-30T05:35:10.716Z,1000.01
2019-05-30T05:36:10.715Z,999.97
2019-05-30T05:37:10.717Z,1000
2019-05-30T05:38:10.719Z,999.95
2019-05-30T05:39:10.731Z,1000.01
2019-05-30T05:40:10.728Z,999.97
2019-05-30T05:41:10.735Z,999.96
2019-05-30T05:42:10.751Z,999.99
2019-05-30T05:43:10.739Z,999.97
2019-05-30T05:44:10.736Z,1000
2019-05-30T05:45:10.741Z,999.97
2019-05-30T05:46:11.027Z,999.96
2019-05-30T05:47:10.748Z,1000.03
2019-05-30T05:48:10.752Z,1000.02
2019-05-30T05:49:10.749Z,1000
2019-05-30T05:50:10.753Z,1000
2019-05-30T05:51:10.801Z,1000.01
2019-05-30T05:52:12.176Z,1000.01
2019-05-30T05:53:10.762Z,999.99
2019-05-30T05:54:10.766Z,1000.04
2019-05-30T05:55:10.775Z,1000.07
2019-05-30T05:56:10.767Z,1000.09
2019-05-30T05:57:10.770Z,1000.11
2019-05-30T05:58:10.782Z,1000.15
2019-05-30T05:59:10.771Z,1000.09
2019-05-30T06:00:10.784Z,1000.14
2019-05-30T06:01:10.778Z,1000.12
2019-05-30T06:02:10.800Z,1000.15
2019-05-30T06:03:10.783Z,1000.19
2019-05-30T06:04:13.366Z,1000.14
2019-05-30T06:05:10.792Z,1000.18
2019-05-30T06:06:10.795Z,1000.18
2019-05-30T06:07:10.799Z,1000.12
2019-05-30T06:08:10.803Z,1000.16
2019-05-30T06:09:10.805Z,1000.11
2019-05-30T06:10:10.819Z,1000.05
2019-05-30T06:11:10.815Z,1000.1
2019-05-30T06:12:10.817Z,1000.07
2019-05-30T06:13:10.820Z,1000.03
2019-05-30T06:14:10.829Z,1000.07
2019-05-30T06:15:10.835Z,1000.09
2019-05-30T06:16:10.843Z,1000.08
2019-05-30T06:17:10.838Z,1000.14
2019-05-30T06:18:10.848Z,1000.13
2019-05-30T06:19:10.843Z,1000.15
2019-05-30T06:20:10.848Z,1000.15
2019-05-30T06:21:10.855Z,1000.14
2019-05-30T06:22:10.858Z,1000.18
2019-05-30T06:23:10.860Z,1000.12
2019-05-30T06:24:10.864Z,1000.12
2019-05-30T06:25:10.870Z,1000.16
2019-05-30T06:26:10.870Z,1000.15
2019-05-30T06:27:10.874Z,1000.12
2019-05-30T06:28:10.879Z,1000.1
2019-05-30T06:29:10.886Z,1000.11
2019-05-30T06:30:10.887Z,1000.07
2019-05-30T06:31:10.894Z,1000.06
2019-05-30T06:32:10.898Z,1000.05
2019-05-30T06:33:10.902Z,1000.02
2019-05-30T06:34:10.906Z,1000.05
2019-05-30T06:35:10.910Z,1000.02
2019-05-30T06:36:10.916Z,1000.06
2019-05-30T06:37:12.112Z,1000.08
2019-05-30T06:38:10.933Z,1000.12
2019-05-30T06:39:10.930Z,1000.12
2019-05-30T06:40:10.954Z,1000.13
2019-05-30T06:41:10.941Z,1000.12
2019-05-30T06:42:10.944Z,1000.16
2019-05-30T06:43:10.969Z,1000.19
2019-05-30T06:44:10.951Z,1000.16
2019-05-30T06:45:10.959Z,1000.16
2019-05-30T06:46:10.968Z,1000.19
2019-05-30T06:47:10.970Z,1000.17
2019-05-30T06:48:11.040Z,1000.16
2019-05-30T06:49:10.983Z,1000.12
2019-05-30T06:50:11.013Z,1000.09
2019-05-30T06:51:14.320Z,1000.12
2019-05-30T06:52:10.989Z,1000.08
2019-05-30T06:53:11.015Z,1000.08
2019-05-30T06:54:11.000Z,1000.1
2019-05-30T06:55:11.003Z,1000.07
2019-05-30T06:56:11.005Z,1000.1
2019-05-30T06:57:11.014Z,1000.08
2019-05-30T06:58:11.014Z,1000.1
2019-05-30T06:59:11.033Z,1000.14
2019-05-30T07:00:11.037Z,1000.11
2019-05-30T07:01:11.048Z,1000.1
2019-05-30T07:02:11.033Z,1000.11
2019-05-30T07:03:11.130Z,1000.07
2019-05-30T07:04:11.331Z,1000.11
2019-05-30T07:05:11.745Z,1000.11
2019-05-30T07:06:11.458Z,1000.1
2019-05-30T07:07:11.158Z,1000.07
2019-05-30T07:08:11.062Z,1000.06
2019-05-30T07:09:11.068Z,1000.09
2019-05-30T07:10:11.084Z,1000.09
2019-05-30T07:11:11.084Z,1000.08
2019-05-30T07:12:11.976Z,1000.06
2019-05-30T07:13:11.106Z,1000.07
2019-05-30T07:14:11.099Z,1000.08
2019-05-30T07:15:11.106Z,1000.04
2019-05-30T07:16:11.103Z,1000.07
2019-05-30T07:17:11.108Z,1000.07
2019-05-30T07:18:11.119Z,1000.1
2019-05-30T07:19:11.122Z,1000.11
2019-05-30T07:20:11.137Z,1000.07
2019-05-30T07:21:11.127Z,1000.11
2019-05-30T07:22:11.134Z,1000.07
2019-05-30T07:23:11.145Z,1000.09
2019-05-30T07:24:11.149Z,1000.17
2019-05-30T07:25:11.150Z,1000.13
2019-05-30T07:26:11.158Z,1000.14
2019-05-30T07:27:11.163Z,1000.12
2019-05-30T07:28:11.216Z,1000.18
2019-05-30T07:29:11.169Z,1000.14
2019-05-30T07:30:11.176Z,1000.18
2019-05-30T07:31:11.184Z,1000.17
2019-05-30T07:32:13.421Z,1000.18
2019-05-30T07:33:11.203Z,1000.19
2019-05-30T07:34:11.219Z,1000.18
2019-05-30T07:35:11.214Z,1000.15
2019-05-30T07:36:11.210Z,1000.17
2019-05-30T07:37:11.215Z,1000.17
2019-05-30T07:38:11.218Z,1000.18
2019-05-30T07:39:11.227Z,1000.18
2019-05-30T07:40:11.230Z,1000.18
2019-05-30T07:41:11.236Z,1000.21
2019-05-30T07:42:11.242Z,1000.27
2019-05-30T07:43:11.248Z,1000.24
2019-05-30T07:44:11.271Z,1000.23
2019-05-30T07:45:11.278Z,1000.27
2019-05-30T07:46:11.268Z,1000.26
2019-05-30T07:47:11.270Z,1000.22
2019-05-30T07:48:11.279Z,1000.23
2019-05-30T07:49:11.282Z,1000.21
2019-05-30T07:50:11.289Z,1000.24
2019-05-30T07:51:11.293Z,1000.25
2019-05-30T07:52:11.302Z,1000.25
2019-05-30T07:53:11.307Z,1000.26
2019-05-30T07:54:11.318Z,1000.25
2019-05-30T07:55:11.320Z,1000.3
2019-05-30T07:56:11.322Z,1000.27
2019-05-30T07:57:11.331Z,1000.3
2019-05-30T07:58:11.350Z,1000.32
2019-05-30T07:59:11.340Z,1000.31
2019-05-30T08:00:11.359Z,1000.28
2019-05-30T08:01:11.364Z,1000.34
2019-05-30T08:02:11.360Z,1000.34
2019-05-30T08:03:11.366Z,1000.31
2019-05-30T08:04:11.385Z,1000.31
2019-05-30T08:05:23.268Z,1000.31
2019-05-30T08:06:11.388Z,1000.34
2019-05-30T08:07:11.396Z,1000.3
2019-05-30T08:08:11.394Z,1000.33
2019-05-30T08:09:11.403Z,1000.29
2019-05-30T08:10:11.407Z,1000.28
2019-05-30T08:11:11.416Z,1000.28
2019-05-30T08:12:11.422Z,1000.28
2019-05-30T08:13:11.426Z,1000.27
2019-05-30T08:14:11.432Z,1000.27
2019-05-30T08:15:11.465Z,1000.28
2019-05-30T08:16:11.446Z,1000.27
2019-05-30T08:17:11.453Z,1000.25
2019-05-30T08:18:11.459Z,1000.23
2019-05-30T08:19:11.470Z,1000.19
2019-05-30T08:20:11.481Z,1000.23
2019-05-30T08:21:11.497Z,1000.2
2019-05-30T08:22:11.548Z,1000.19
2019-05-30T08:23:11.486Z,1000.15
2019-05-30T08:24:11.491Z,1000.15
2019-05-30T08:25:11.500Z,1000.16
2019-05-30T08:26:11.501Z,1000.14
2019-05-30T08:27:11.509Z,1000.15
2019-05-30T08:28:11.566Z,1000.16
2019-05-30T08:29:11.520Z,1000.15
2019-05-30T08:30:11.537Z,1000.14
2019-05-30T08:31:11.584Z,1000.15
2019-05-30T08:32:11.550Z,1000.08
2019-05-30T08:33:11.542Z,1000.09
2019-05-30T08:34:11.548Z,1000.05
2019-05-30T08:35:11.563Z,1000.07
2019-05-30T08:36:11.568Z,1000.06
2019-05-30T08:37:11.563Z,1000.04
2019-05-30T08:38:11.641Z,1000.04
2019-05-30T08:39:11.686Z,999.96
2019-05-30T08:40:11.582Z,999.98
2019-05-30T08:41:11.586Z,999.99
2019-05-30T08:42:11.599Z,999.98
2019-05-30T08:43:11.898Z,1000.01
2019-05-30T08:44:11.603Z,999.99
2019-05-30T08:45:11.611Z,999.98
2019-05-30T08:46:11.616Z,999.98
2019-05-30T08:47:11.621Z,999.96
2019-05-30T08:48:11.628Z,999.99
2019-05-30T08:49:11.634Z,999.98
2019-05-30T08:50:11.646Z,999.93
2019-05-30T08:51:11.645Z,999.92
2019-05-30T08:52:11.651Z,999.9
2019-05-30T08:53:11.663Z,999.9
2019-05-30T08:54:13.853Z,999.83
2019-05-30T08:55:11.668Z,999.85
2019-05-30T08:56:11.673Z,999.88
2019-05-30T08:57:11.687Z,999.89
2019-05-30T08:58:11.686Z,999.85
2019-05-30T08:59:11.704Z,999.83
2019-05-30T09:00:11.708Z,999.82
2019-05-30T09:01:11.707Z,999.84
2019-05-30T09:02:11.708Z,999.91
2019-05-30T09:03:11.712Z,999.9
2019-05-30T09:04:11.718Z,999.89
2019-05-30T09:05:11.731Z,999.91
2019-05-30T09:06:11.730Z,999.88
2019-05-30T09:07:11.732Z,999.87
2019-05-30T09:08:11.737Z,999.82
2019-05-30T09:09:11.744Z,999.85
2019-05-30T09:10:11.746Z,999.8
2019-05-30T09:11:11.753Z,999.8
2019-05-30T09:12:11.754Z,999.79
2019-05-30T09:13:12.098Z,999.82
2019-05-30T09:14:11.774Z,999.8
2019-05-30T09:15:11.771Z,999.81
2019-05-30T09:16:11.770Z,999.76
2019-05-30T09:17:11.773Z,999.84
2019-05-30T09:18:11.778Z,999.8
2019-05-30T09:19:11.779Z,999.77
2019-05-30T09:20:11.784Z,999.77
2019-05-30T09:21:11.784Z,999.81
2019-05-30T09:22:11.791Z,999.79
2019-05-30T09:23:11.789Z,999.73
2019-05-30T09:24:11.795Z,999.74
2019-05-30T09:25:11.797Z,999.72
2019-05-30T09:26:11.798Z,999.75
2019-05-30T09:27:11.800Z,999.74
2019-05-30T09:28:11.802Z,999.75
2019-05-30T09:29:11.803Z,999.8
2019-05-30T09:30:11.803Z,999.71
2019-05-30T09:31:11.812Z,999.69
2019-05-30T09:32:11.811Z,999.71
2019-05-30T09:33:11.810Z,999.66
2019-05-30T09:34:12.180Z,999.66
2019-05-30T09:35:11.817Z,999.66
2019-05-30T09:36:13.442Z,999.68
2019-05-30T09:37:11.866Z,999.69
2019-05-30T09:38:11.824Z,999.63
2019-05-30T09:39:11.824Z,999.66
2019-05-30T09:40:11.825Z,999.65
2019-05-30T09:41:11.826Z,999.66
2019-05-30T09:42:11.835Z,999.66
2019-05-30T09:43:11.829Z,999.66
2019-05-30T09:44:11.832Z,999.68
2019-05-30T09:45:11.836Z,999.7
2019-05-30T09:46:11.837Z,999.65
2019-05-30T09:47:11.841Z,999.7
2019-05-30T09:48:11.844Z,999.64
2019-05-30T09:49:11.849Z,999.66
2019-05-30T09:50:11.848Z,999.67
2019-05-30T09:51:11.846Z,999.67
2019-05-30T09:52:11.856Z,999.72
2019-05-30T09:53:11.853Z,999.71
2019-05-30T09:54:11.854Z,999.72
2019-05-30T09:55:11.856Z,999.68
2019-05-30T09:56:11.859Z,999.66
2019-05-30T09:57:11.861Z,999.77
2019-05-30T09:58:11.863Z,999.74
2019-05-30T09:59:11.873Z,999.74
2019-05-30T10:00:11.867Z,999.73
2019-05-30T10:01:11.877Z,999.79
2019-05-30T10:02:11.873Z,999.76
2019-05-30T10:03:11.883Z,999.75
2019-05-30T10:04:11.879Z,999.58
2019-05-30T10:05:11.879Z,999.58
2019-05-30T10:06:26.533Z,999.61
2019-05-30T10:07:11.886Z,999.63
2019-05-30T10:08:11.888Z,999.63
2019-05-30T10:09:11.892Z,999.57
2019-05-30T10:10:11.921Z,999.61
2019-05-30T10:11:11.894Z,999.55
2019-05-30T10:12:11.896Z,999.68
2019-05-30T10:13:11.897Z,999.68
2019-05-30T10:14:11.906Z,999.59
2019-05-30T10:15:11.902Z,999.63
2019-05-30T10:16:11.903Z,999.57
2019-05-30T10:17:11.918Z,999.53
2019-05-30T10:18:11.906Z,999.59
2019-05-30T10:19:11.908Z,999.62
2019-05-30T10:20:11.913Z,999.64
2019-05-30T10:21:11.913Z,999.63
2019-05-30T10:22:11.917Z,999.59
2019-05-30T10:23:11.916Z,999.59
2019-05-30T10:24:11.919Z,999.56
2019-05-30T10:25:11.919Z,999.55
2019-05-30T10:26:11.957Z,999.53
2019-05-30T10:27:11.925Z,999.5
2019-05-30T10:28:11.925Z,999.5
2019-05-30T10:29:11.928Z,999.47
2019-05-30T10:30:11.930Z,999.53
2019-05-30T10:31:11.932Z,999.51
2019-05-30T10:32:11.935Z,999.51
2019-05-30T10:33:11.943Z,999.55
2019-05-30T10:34:11.942Z,999.53
2019-05-30T10:35:11.939Z,999.54
2019-05-30T10:36:14.669Z,999.53
2019-05-30T10:37:11.945Z,999.51
2019-05-30T10:38:11.948Z,999.49
2019-05-30T10:39:11.945Z,999.49
2019-05-30T10:40:11.947Z,999.47
2019-05-30T10:41:11.951Z,999.46
2019-05-30T10:42:11.956Z,999.48
2019-05-30T10:43:11.955Z,999.48
2019-05-30T10:44:12.109Z,999.48
2019-05-30T10:45:11.970Z,999.47
2019-05-30T10:46:11.958Z,999.45
2019-05-30T10:47:11.967Z,999.46
2019-05-30T10:48:11.975Z,999.44
2019-05-30T10:49:11.968Z,999.43
2019-05-30T10:50:11.970Z,999.43
2019-05-30T10:51:11.978Z,999.46
2019-05-30T10:52:11.972Z,999.45
2019-05-30T10:53:11.988Z,999.46
2019-05-30T10:54:11.991Z,999.43
2019-05-30T10:55:11.988Z,999.46
2019-05-30T10:56:11.982Z,999.47
2019-05-30T10:57:11.988Z,999.58
2019-05-30T10:58:11.989Z,999.6
2019-05-30T10:59:11.986Z,999.61
2019-05-30T11:00:11.991Z,999.6
2019-05-30T11:01:11.992Z,999.66
2019-05-30T11:02:11.994Z,999.65
2019-05-30T11:03:11.999Z,999.66
2019-05-30T11:04:12.000Z,999.65
2019-05-30T11:05:12.005Z,999.6
2019-05-30T11:06:12.002Z,999.6
2019-05-30T11:07:12.283Z,999.57
2019-05-30T11:08:12.008Z,999.49
2019-05-30T11:09:12.014Z,999.49
2019-05-30T11:10:12.017Z,999.44
2019-05-30T11:11:12.017Z,999.41
2019-05-30T11:12:12.024Z,999.4
2019-05-30T11:13:12.024Z,999.37
2019-05-30T11:14:12.029Z,999.39
2019-05-30T11:15:12.029Z,999.31
2019-05-30T11:16:12.039Z,999.36
2019-05-30T11:17:12.039Z,999.31
2019-05-30T11:18:12.041Z,999.29
2019-05-30T11:19:12.043Z,999.26
2019-05-30T11:20:12.051Z,999.2
2019-05-30T11:21:12.060Z,999.21
2019-05-30T11:22:12.053Z,999.2
2019-05-30T11:23:12.062Z,999.23
2019-05-30T11:24:12.152Z,999.17
2019-05-30T11:25:12.062Z,999.21
2019-05-30T11:26:12.064Z,999.19
2019-05-30T11:27:12.065Z,999.15
2019-05-30T11:28:12.067Z,999.15
2019-05-30T11:29:12.074Z,999.15
2019-05-30T11:30:12.074Z,999.1
2019-05-30T11:31:12.084Z,999.06
2019-05-30T11:32:12.080Z,999.09
2019-05-30T11:33:12.086Z,999.02
2019-05-30T11:34:12.093Z,999.04
2019-05-30T11:35:12.091Z,998.96
2019-05-30T11:36:12.096Z,999.01
2019-05-30T11:37:18.431Z,999.04
2019-05-30T11:38:12.099Z,999.02
2019-05-30T11:39:12.104Z,999.01
2019-05-30T11:40:12.108Z,998.97
2019-05-30T11:41:12.113Z,998.97
2019-05-30T11:42:12.119Z,998.96
2019-05-30T11:43:12.116Z,998.93
2019-05-30T11:44:12.134Z,998.94
2019-05-30T11:45:12.123Z,998.96
2019-05-30T11:46:12.126Z,998.95
2019-05-30T11:47:12.139Z,998.91
2019-05-30T11:48:12.135Z,998.9
2019-05-30T11:49:12.136Z,998.89
2019-05-30T11:50:12.998Z,998.84
2019-05-30T11:51:12.144Z,998.86
2019-05-30T11:52:12.147Z,998.89
2019-05-30T11:53:12.156Z,998.9
2019-05-30T11:54:12.151Z,998.94
2019-05-30T11:55:12.159Z,998.94
2019-05-30T11:56:12.185Z,998.85
2019-05-30T11:57:12.163Z,998.86
2019-05-30T11:58:12.169Z,998.95
2019-05-30T11:59:12.172Z,998.92
2019-05-30T12:00:12.166Z,998.92
2019-05-30T12:01:12.171Z,998.87
2019-05-30T12:02:12.173Z,998.91
2019-05-30T12:03:12.180Z,998.93
2019-05-30T12:04:12.181Z,998.89
2019-05-30T12:05:12.184Z,998.87
2019-05-30T12:06:12.204Z,998.87
2019-05-30T12:07:12.202Z,998.88
2019-05-30T12:08:12.190Z,998.87
2019-05-30T12:09:14.584Z,998.92
2019-05-30T12:10:12.193Z,998.88
2019-05-30T12:11:12.200Z,998.88
2019-05-30T12:12:12.201Z,998.83
2019-05-30T12:13:12.202Z,998.87
2019-05-30T12:14:12.206Z,998.89
2019-05-30T12:15:12.209Z,998.86
2019-05-30T12:16:12.210Z,998.85
2019-05-30T12:17:12.218Z,998.82
2019-05-30T12:18:12.223Z,998.83
2019-05-30T12:19:12.217Z,998.83
2019-05-30T12:20:12.215Z,998.85
2019-05-30T12:21:12.219Z,998.87
2019-05-30T12:22:12.222Z,998.84
2019-05-30T12:23:12.226Z,998.81
2019-05-30T12:24:12.235Z,998.82
2019-05-30T12:25:12.241Z,998.77